createdAt,value
2018-05-04T00:01:19.078Z,98001.36
2018-05-04T00:03:46.611Z,98000.12
2018-05-04T00:06:14.207Z,98008.59
2018-05-04T00:08:41.735Z,97997.98
2018-05-04T00:11:09.330Z,97998.47
2018-05-04T00:13:37.543Z,97986.92
2018-05-04T00:16:05.136Z,97992.25
2018-05-04T00:18:32.886Z,97989.80
2018-05-04T00:21:00.549Z,97993.25
2018-05-04T00:23:28.067Z,97984.33
2018-05-04T00:25:55.614Z,97988.64
2018-05-04T00:28:23.231Z,97987.07
2018-05-04T00:30:51.072Z,97987.28
2018-05-04T00:33:18.610Z,97985.11
2018-05-04T00:35:46.172Z,97985.36
2018-05-04T00:38:13.856Z,97985.86
2018-05-04T00:40:41.685Z,97979.89
2018-05-04T00:43:09.933Z,97984.20
2018-05-04T00:45:37.479Z,97975.59
2018-05-04T00:48:05.235Z,97976.88
2018-05-04T00:50:33.240Z,97978.10
2018-05-04T00:53:01.056Z,97977.38
2018-05-04T00:55:28.787Z,97977.70
2018-05-04T00:57:56.305Z,97979.95
2018-05-04T01:00:24.154Z,97990.64
2018-05-04T01:02:51.770Z,97990.03
2018-05-04T01:05:19.425Z,97998.51
2018-05-04T01:07:46.961Z,97999.54
2018-05-04T01:10:14.702Z,97995.77
2018-05-04T01:12:42.479Z,97996.02
2018-05-04T01:15:10.002Z,97997.70
2018-05-04T01:17:37.546Z,97998.81
2018-05-04T01:20:05.535Z,97994.88
2018-05-04T01:22:33.222Z,98001.74
2018-05-04T01:25:00.872Z,98000.56
2018-05-04T01:27:28.526Z,98008.70
2018-05-04T01:29:56.150Z,98012.60
2018-05-04T01:32:23.982Z,98005.34
2018-05-04T01:34:51.663Z,98009.92
2018-05-04T01:37:19.484Z,98010.22
2018-05-04T01:39:47.013Z,98006.95
2018-05-04T01:42:14.926Z,98007.10
2018-05-04T01:44:42.468Z,98013.34
2018-05-04T01:47:10.007Z,98011.44
2018-05-04T01:49:37.646Z,98021.75
2018-05-04T01:52:05.301Z,98023.80
2018-05-04T01:54:33.108Z,98023.41
2018-05-04T01:57:00.751Z,98032.42
2018-05-04T01:59:28.386Z,98018.14
2018-05-04T02:01:56.368Z,98017.27
2018-05-04T02:04:24.200Z,98017.56
2018-05-04T02:06:52.833Z,98021.08
2018-05-04T02:09:20.402Z,98022.76
2018-05-04T02:11:47.961Z,98024.74
2018-05-04T02:14:15.583Z,98018.91
2018-05-04T02:16:43.342Z,98021.69
2018-05-04T02:19:10.953Z,98022.02
2018-05-04T02:21:38.573Z,98019.50
2018-05-04T02:24:06.558Z,98029.38
2018-05-04T02:26:34.173Z,98022.09
2018-05-04T02:29:01.572Z,98017.19
2018-05-04T02:31:29.273Z,98028.66
2018-05-04T02:33:56.842Z,98025.08
2018-05-04T02:36:24.523Z,98019.30
2018-05-04T02:38:52.148Z,98024.45
2018-05-04T02:41:20.369Z,98027.23
2018-05-04T02:43:47.921Z,98034.45
2018-05-04T02:46:15.522Z,98035.30
2018-05-04T02:48:43.151Z,98040.59
2018-05-04T02:51:10.777Z,98039.64
2018-05-04T02:53:38.342Z,98037.39
2018-05-04T02:56:06.043Z,98039.53
2018-05-04T02:58:33.826Z,98035.45
2018-05-04T03:01:01.394Z,98035.80
2018-05-04T03:03:28.937Z,98032.41
2018-05-04T03:05:56.473Z,98032.98
2018-05-04T03:08:24.033Z,98038.75
2018-05-04T03:10:52.773Z,98036.27
2018-05-04T03:13:19.839Z,98041.16
2018-05-04T03:15:47.018Z,98037.02
2018-05-04T03:18:15.013Z,98041.56
2018-05-04T03:20:42.118Z,98042.42
2018-05-04T03:23:09.991Z,98047.89
2018-05-04T03:25:37.219Z,98046.08
2018-05-04T03:28:05.043Z,98045.39
2018-05-04T03:30:33.054Z,98042.44
2018-05-04T03:33:00.138Z,98054.17
2018-05-04T03:35:27.658Z,98043.48
2018-05-04T03:37:54.763Z,98050.73
2018-05-04T03:40:22.302Z,98048.77
2018-05-04T03:42:49.772Z,98046.36
2018-05-04T03:45:16.893Z,98053.98
2018-05-04T03:47:44.141Z,98057.65
2018-05-04T03:50:11.307Z,98055.92
2018-05-04T03:52:39.006Z,98057.86
2018-05-04T03:55:06.758Z,98052.80
2018-05-04T03:57:46.278Z,98061.12
2018-05-04T04:00:25.620Z,98064.20
2018-05-04T04:03:05.114Z,98062.69
2018-05-04T04:05:32.993Z,98062.33
2018-05-04T04:08:00.638Z,98059.64
2018-05-04T04:10:28.328Z,98053.66
2018-05-04T04:12:55.859Z,98063.00
2018-05-04T04:15:23.528Z,98064.70
2018-05-04T04:17:51.965Z,98065.06
2018-05-04T04:20:19.562Z,98051.48
2018-05-04T04:22:47.174Z,98062.49
2018-05-04T04:25:14.779Z,98061.34
2018-05-04T04:27:42.333Z,98060.97
2018-05-04T04:30:09.978Z,98068.38
2018-05-04T04:32:37.518Z,98061.28
2018-05-04T04:35:05.126Z,98064.23
2018-05-04T04:37:33.009Z,98068.72
2018-05-04T04:40:00.878Z,98069.72
2018-05-04T04:42:28.449Z,98070.91
2018-05-04T04:44:56.439Z,98065.66
2018-05-04T04:47:24.067Z,98065.41
2018-05-04T04:49:51.638Z,98060.59
2018-05-04T04:52:19.334Z,98062.11
2018-05-04T04:54:46.868Z,98062.88
2018-05-04T04:57:14.513Z,98072.70
2018-05-04T04:59:42.243Z,98074.80
2018-05-04T05:02:09.851Z,98075.92
2018-05-04T05:04:37.565Z,98076.19
2018-05-04T05:07:05.441Z,98076.05
2018-05-04T05:09:33.159Z,98084.20
2018-05-04T05:12:00.820Z,98081.70
2018-05-04T05:14:28.403Z,98076.96
2018-05-04T05:16:55.944Z,98075.48
2018-05-04T05:19:23.819Z,98083.56
2018-05-04T05:21:52.114Z,98077.20
2018-05-04T05:24:19.581Z,98071.90
2018-05-04T05:26:47.120Z,98079.92
2018-05-04T05:29:14.820Z,98076.74
2018-05-04T05:31:42.390Z,98081.31
2018-05-04T05:34:10.056Z,98084.03
2018-05-04T05:36:37.615Z,98074.98
2018-05-04T05:39:06.092Z,98075.30
2018-05-04T05:41:33.869Z,98073.92
2018-05-04T05:44:01.450Z,98081.27
2018-05-04T05:46:29.138Z,98079.62
2018-05-04T05:49:01.289Z,98084.62
2018-05-04T05:51:30.455Z,98079.56
2018-05-04T05:53:58.043Z,98084.48
2018-05-04T05:56:25.748Z,98087.00
2018-05-04T05:58:53.275Z,98090.31
2018-05-04T06:01:20.884Z,98087.88
2018-05-04T06:03:48.669Z,98090.50
2018-05-04T06:06:16.229Z,98089.79
2018-05-04T06:08:43.924Z,98090.50
2018-05-04T06:11:11.556Z,98090.16
2018-05-04T06:13:39.187Z,98100.11
2018-05-04T06:16:06.851Z,98090.70
2018-05-04T06:18:34.404Z,98079.83
2018-05-04T06:21:02.068Z,98079.08
2018-05-04T06:23:29.604Z,98087.31
2018-05-04T06:25:57.268Z,98088.73
2018-05-04T06:28:25.485Z,98082.39
2018-05-04T06:30:53.215Z,98073.27
2018-05-04T06:33:20.741Z,98078.94
2018-05-04T06:35:48.469Z,98076.95
2018-05-04T06:38:16.056Z,98085.17
2018-05-04T06:40:43.970Z,98086.07
2018-05-04T06:43:11.855Z,98089.65
2018-05-04T06:45:39.511Z,98089.63
2018-05-04T06:48:07.038Z,98090.92
2018-05-04T06:50:34.672Z,98091.70
2018-05-04T06:53:02.334Z,98083.95
2018-05-04T06:55:29.850Z,98091.92
2018-05-04T06:57:57.489Z,98091.52
2018-05-04T07:00:25.320Z,98092.27
2018-05-04T07:02:52.938Z,98099.53
2018-05-04T07:05:20.546Z,98098.31
2018-05-04T07:07:48.133Z,98103.28
2018-05-04T07:10:15.665Z,98098.17
2018-05-04T07:12:43.229Z,98101.92
2018-05-04T07:15:10.986Z,98109.07
2018-05-04T07:17:38.686Z,98108.09
2018-05-04T07:20:06.389Z,98108.06
2018-05-04T07:22:33.975Z,98107.27
2018-05-04T07:25:01.073Z,98104.48
2018-05-04T07:27:28.248Z,98095.97
2018-05-04T07:29:55.316Z,98092.20
2018-05-04T07:32:22.868Z,98101.42
2018-05-04T07:34:50.416Z,98101.88
2018-05-04T07:37:17.726Z,98106.96
2018-05-04T07:39:44.806Z,98112.29
2018-05-04T07:42:12.455Z,98102.69
2018-05-04T07:44:40.014Z,98108.34
2018-05-04T07:47:07.784Z,98099.59
2018-05-04T07:49:35.420Z,98098.10
2018-05-04T07:52:03.346Z,98098.70
2018-05-04T07:54:31.547Z,98097.84
2018-05-04T07:56:58.854Z,98097.95
2018-05-04T07:59:26.378Z,98106.28
2018-05-04T08:01:53.575Z,98094.94
2018-05-04T08:04:21.119Z,98100.66
2018-05-04T08:06:48.656Z,98104.39
2018-05-04T08:09:15.740Z,98109.83
2018-05-04T08:11:43.315Z,98111.53
2018-05-04T08:14:10.431Z,98111.71
2018-05-04T08:16:38.065Z,98108.25
2018-05-04T08:19:05.255Z,98102.50
2018-05-04T08:21:32.390Z,98109.41
2018-05-04T08:23:59.462Z,98112.51
2018-05-04T08:26:26.525Z,98113.77
2018-05-04T08:28:54.043Z,98109.48
2018-05-04T08:31:21.115Z,98110.66
2018-05-04T08:33:48.193Z,98110.33
2018-05-04T08:36:15.776Z,98112.80
2018-05-04T08:38:43.551Z,98114.97
2018-05-04T08:41:11.155Z,98126.20
2018-05-04T08:43:38.704Z,98121.20
2018-05-04T08:46:06.369Z,98118.37
2018-05-04T08:48:33.975Z,98112.00
2018-05-04T08:51:01.740Z,98113.50
2018-05-04T08:53:29.400Z,98111.27
2018-05-04T08:55:57.069Z,98118.51
2018-05-04T08:58:25.331Z,98113.73
2018-05-04T09:00:52.876Z,98112.97
2018-05-04T09:03:20.726Z,98110.98
2018-05-04T09:05:48.504Z,98110.19
2018-05-04T09:08:16.114Z,98109.00
2018-05-04T09:10:43.859Z,98111.55
2018-05-04T09:13:11.370Z,98115.77
2018-05-04T09:15:38.980Z,98118.05
2018-05-04T09:18:06.626Z,98110.19
2018-05-04T09:20:34.216Z,98112.64
2018-05-04T09:23:01.767Z,98103.06
2018-05-04T09:25:29.472Z,98103.00
2018-05-04T09:27:57.004Z,98107.88
2018-05-04T09:30:24.615Z,98107.68
2018-05-04T09:32:52.199Z,98109.27
2018-05-04T09:35:19.770Z,98117.76
2018-05-04T09:37:47.432Z,98116.36
2018-05-04T09:40:15.087Z,98106.30
2018-05-04T09:42:42.811Z,98103.83
2018-05-04T09:45:10.359Z,98102.04
2018-05-04T09:47:37.884Z,98099.98
2018-05-04T09:50:05.456Z,98102.86
2018-05-04T09:52:33.011Z,98105.32
2018-05-04T09:55:00.691Z,98108.91
2018-05-04T09:57:28.218Z,98101.05
2018-05-04T09:59:55.867Z,98100.12
2018-05-04T10:02:23.411Z,98103.39
2018-05-04T10:04:50.945Z,98101.56
2018-05-04T10:07:18.575Z,98108.11
2018-05-04T10:09:46.098Z,98099.22
2018-05-04T10:12:13.720Z,98102.70
2018-05-04T10:14:41.250Z,98099.44
2018-05-04T10:17:08.771Z,98092.16
2018-05-04T10:19:36.291Z,98099.77
2018-05-04T10:22:03.916Z,98093.23
2018-05-04T10:24:31.432Z,98085.97
2018-05-04T10:26:58.965Z,98074.78
2018-05-04T10:29:26.482Z,98081.49
2018-05-04T10:31:54.039Z,98083.64
2018-05-04T10:34:21.606Z,98086.50
2018-05-04T10:36:49.185Z,98078.11
2018-05-04T10:39:16.881Z,98074.58
2018-05-04T10:41:44.540Z,98073.53
2018-05-04T10:44:12.160Z,98072.34
2018-05-04T10:46:39.687Z,98067.23
2018-05-04T10:49:07.427Z,98060.30
2018-05-04T10:51:34.955Z,98060.62
2018-05-04T10:54:02.480Z,98063.76
2018-05-04T10:56:30.286Z,98056.59
2018-05-04T10:58:57.996Z,98066.41
2018-05-04T11:01:25.512Z,98067.33
2018-05-04T11:03:54.312Z,98068.41
2018-05-04T11:06:21.907Z,98077.08
2018-05-04T11:08:49.560Z,98073.81
2018-05-04T11:11:17.100Z,98069.70
2018-05-04T11:13:44.812Z,98069.27
2018-05-04T11:16:12.351Z,98062.98
2018-05-04T11:18:39.999Z,98054.82
2018-05-04T11:21:07.666Z,98054.11
2018-05-04T11:23:35.295Z,98063.50
2018-05-04T11:26:02.846Z,98058.81
2018-05-04T11:28:30.687Z,98046.28
2018-05-04T11:30:58.548Z,98046.12
2018-05-04T11:33:26.300Z,98050.81
2018-05-04T11:35:53.876Z,98044.06
2018-05-04T11:38:21.423Z,98055.31
2018-05-04T11:40:49.106Z,98045.20
2018-05-04T11:43:16.656Z,98049.33
2018-05-04T11:45:44.331Z,98041.45
2018-05-04T11:48:12.107Z,98049.56
2018-05-04T11:50:39.776Z,98055.64
2018-05-04T11:53:07.356Z,98045.60
2018-05-04T11:55:34.960Z,98048.91
2018-05-04T11:58:02.633Z,98050.70
2018-05-04T12:00:30.276Z,98044.18
2018-05-04T12:02:57.941Z,98045.76
2018-05-04T12:05:25.476Z,98044.44
2018-05-04T12:07:53.011Z,98044.73
2018-05-04T12:10:20.712Z,98041.14
2018-05-04T12:12:48.327Z,98039.08
2018-05-04T12:15:15.848Z,98038.67
2018-05-04T12:17:44.231Z,98045.66
2018-05-04T12:20:11.938Z,98037.05
2018-05-04T12:22:39.613Z,98031.38
2018-05-04T12:25:07.291Z,98036.11
2018-05-04T12:27:35.125Z,98038.95
2018-05-04T12:30:02.682Z,98036.88
2018-05-04T12:32:30.545Z,98031.72
2018-05-04T12:34:58.080Z,98034.50
2018-05-04T12:37:25.711Z,98039.38
2018-05-04T12:39:54.321Z,98038.53
2018-05-04T12:42:21.966Z,98034.98
2018-05-04T12:44:49.560Z,98031.43
2018-05-04T12:47:17.114Z,98031.92
2018-05-04T12:49:44.802Z,98031.68
2018-05-04T12:52:12.631Z,98034.00
2018-05-04T12:54:41.194Z,98030.00
2018-05-04T12:57:07.946Z,98030.53
2018-05-04T12:59:35.586Z,98026.45
2018-05-04T13:02:03.320Z,98027.39
2018-05-04T13:04:31.689Z,98021.78
2018-05-04T13:06:59.848Z,98012.18
2018-05-04T13:09:27.597Z,98019.53
2018-05-04T13:11:55.391Z,98018.56
2018-05-04T13:14:22.936Z,98012.28
2018-05-04T13:16:50.597Z,98007.03
2018-05-04T13:19:18.318Z,98002.64
2018-05-04T13:21:46.517Z,97994.68
2018-05-04T13:24:14.379Z,97993.12
2018-05-04T13:26:41.960Z,97994.92
2018-05-04T13:29:09.735Z,97992.14
2018-05-04T13:31:37.300Z,97992.95
2018-05-04T13:34:05.711Z,97989.50
2018-05-04T13:36:33.300Z,97991.38
2018-05-04T13:39:00.856Z,97986.11
2018-05-04T13:41:28.442Z,97986.21
2018-05-04T13:43:55.985Z,97988.25
2018-05-04T13:46:23.558Z,97988.92
2018-05-04T13:48:51.097Z,97975.89
2018-05-04T13:51:18.763Z,97980.04
2018-05-04T13:53:46.242Z,97981.64
2018-05-04T13:56:13.805Z,97971.95
2018-05-04T13:58:41.474Z,97982.07
2018-05-04T14:01:09.127Z,97985.81
2018-05-04T14:03:36.785Z,97978.69
2018-05-04T14:06:04.553Z,97973.56
2018-05-04T14:08:32.365Z,97980.77
2018-05-04T14:10:59.889Z,97967.78
2018-05-04T14:13:27.505Z,97968.99
2018-05-04T14:15:55.492Z,97960.99
2018-05-04T14:18:23.016Z,97966.09
2018-05-04T14:20:50.633Z,97967.08
2018-05-04T14:23:18.300Z,97960.21
2018-05-04T14:25:45.832Z,97965.52
2018-05-04T14:28:14.338Z,97963.46
2018-05-04T14:30:41.871Z,97950.80
2018-05-04T14:33:09.404Z,97954.33
2018-05-04T14:35:36.961Z,97960.20
2018-05-04T14:38:04.498Z,97954.44
2018-05-04T14:40:32.066Z,97960.09
2018-05-04T14:42:59.893Z,97951.02
2018-05-04T14:45:27.529Z,97952.52
2018-05-04T14:47:55.176Z,97955.32
2018-05-04T14:50:22.896Z,97960.84
2018-05-04T14:52:50.437Z,97960.64
2018-05-04T14:55:18.122Z,97957.77
2018-05-04T14:57:46.599Z,97962.16
2018-05-04T15:00:15.418Z,97957.77
2018-05-04T15:02:43.133Z,97963.60
2018-05-04T15:05:10.676Z,97971.29
2018-05-04T15:07:38.506Z,97964.94
2018-05-04T15:10:06.058Z,97963.77
2018-05-04T15:12:33.798Z,97964.69
2018-05-04T15:15:01.547Z,97964.91
2018-05-04T15:17:29.077Z,97962.59
2018-05-04T15:19:56.718Z,97962.85
2018-05-04T15:22:24.479Z,97960.67
2018-05-04T15:24:52.114Z,97966.64
2018-05-04T15:27:19.651Z,97970.44
2018-05-04T15:29:47.208Z,97970.83
2018-05-04T15:32:14.906Z,97970.22
2018-05-04T15:34:42.512Z,97972.77
2018-05-04T15:37:12.551Z,97973.76
2018-05-04T15:39:40.214Z,97968.95
2018-05-04T15:42:07.968Z,97969.91
2018-05-04T15:44:35.543Z,97973.44
2018-05-04T15:47:03.259Z,97972.40
2018-05-04T15:49:30.847Z,97975.92
2018-05-04T15:52:07.119Z,97973.59
2018-05-04T15:54:34.964Z,97975.48
2018-05-04T15:57:02.509Z,97973.96
2018-05-04T15:59:30.163Z,97974.95
2018-05-04T16:01:57.834Z,97972.36
2018-05-04T16:04:25.383Z,97970.22
2018-05-04T16:06:53.641Z,97973.78
2018-05-04T16:09:21.268Z,97972.80
2018-05-04T16:11:48.918Z,97980.87
2018-05-04T16:14:16.463Z,97987.27
2018-05-04T16:16:44.031Z,97983.25
2018-05-04T16:19:11.661Z,97992.62
2018-05-04T16:21:39.373Z,97992.63
2018-05-04T16:24:06.917Z,97986.70
2018-05-04T16:26:34.648Z,97983.50
2018-05-04T16:29:02.208Z,97992.36
2018-05-04T16:31:30.020Z,97992.94
2018-05-04T16:33:57.563Z,97989.61
2018-05-04T16:36:25.291Z,97988.37
2018-05-04T16:38:52.836Z,97993.45
2018-05-04T16:41:20.536Z,97998.97
2018-05-04T16:43:48.452Z,97998.15
2018-05-04T16:46:21.562Z,98000.95
2018-05-04T16:48:54.797Z,98002.31
2018-05-04T16:51:22.329Z,98004.63
2018-05-04T16:53:49.971Z,98004.05
2018-05-04T16:56:17.658Z,98010.28
2018-05-04T16:58:45.223Z,98004.36
2018-05-04T17:01:12.927Z,98005.83
2018-05-04T17:03:40.467Z,98008.80
2018-05-04T17:06:08.081Z,98006.05
2018-05-04T17:08:35.666Z,98018.69
2018-05-04T17:11:03.592Z,98019.07
2018-05-04T17:13:31.151Z,98021.20
2018-05-04T17:15:58.755Z,98021.52
2018-05-04T17:18:26.404Z,98025.97
2018-05-04T17:20:54.063Z,98023.55
2018-05-04T17:23:21.689Z,98027.85
2018-05-04T17:25:49.348Z,98031.52
2018-05-04T17:28:16.888Z,98034.58
2018-05-04T17:30:44.557Z,98035.93
2018-05-04T17:33:12.119Z,98035.48
2018-05-04T17:35:39.778Z,98040.11
2018-05-04T17:38:07.637Z,98040.26
2018-05-04T17:40:35.418Z,98038.62
2018-05-04T17:43:03.412Z,98039.39
2018-05-04T17:45:31.182Z,98052.27
2018-05-04T17:47:58.719Z,98055.14
2018-05-04T17:50:26.262Z,98050.75
2018-05-04T17:52:53.844Z,98051.53
2018-05-04T17:55:21.377Z,98054.44
2018-05-04T17:57:48.926Z,98052.61
2018-05-04T18:00:16.488Z,98058.59
2018-05-04T18:02:44.183Z,98060.66
2018-05-04T18:05:11.984Z,98059.65
2018-05-04T18:07:39.613Z,98072.02
2018-05-04T18:10:07.155Z,98074.81
2018-05-04T18:12:34.729Z,98081.05
2018-05-04T18:15:02.313Z,98078.92
2018-05-04T18:17:29.847Z,98084.16
2018-05-04T18:19:57.559Z,98083.05
2018-05-04T18:22:25.159Z,98087.08
2018-05-04T18:24:52.863Z,98095.79
2018-05-04T18:27:20.592Z,98105.31
2018-05-04T18:29:48.234Z,98098.59
2018-05-04T18:32:15.815Z,98102.41
2018-05-04T18:34:43.349Z,98099.08
2018-05-04T18:37:11.048Z,98106.27
2018-05-04T18:39:38.591Z,98110.64
2018-05-04T18:42:06.164Z,98116.39
2018-05-04T18:44:33.839Z,98120.58
2018-05-04T18:47:01.428Z,98120.07
2018-05-04T18:49:28.995Z,98116.88
2018-05-04T18:51:56.729Z,98121.30
2018-05-04T18:54:24.431Z,98130.77
2018-05-04T18:56:52.214Z,98136.55
2018-05-04T18:59:20.755Z,98143.92
2018-05-04T19:01:48.478Z,98145.58
2018-05-04T19:04:16.019Z,98151.00
2018-05-04T19:06:43.704Z,98152.88
2018-05-04T19:09:11.645Z,98159.38
2018-05-04T19:11:39.501Z,98167.08
2018-05-04T19:14:08.364Z,98162.65
2018-05-04T19:16:35.897Z,98158.66
2018-05-04T19:19:03.594Z,98164.91
2018-05-04T19:21:31.335Z,98161.32
2018-05-04T19:23:59.022Z,98155.61
2018-05-04T19:26:26.598Z,98169.99
2018-05-04T19:28:54.153Z,98172.53
2018-05-04T19:31:22.624Z,98175.19
2018-05-04T19:33:50.240Z,98189.30
2018-05-04T19:36:17.901Z,98189.16
2018-05-04T19:38:45.525Z,98191.22
2018-05-04T19:41:13.184Z,98188.30
2018-05-04T19:43:41.111Z,98203.63
2018-05-04T19:46:08.935Z,98206.14
2018-05-04T19:48:37.335Z,98207.95
2018-05-04T19:51:04.856Z,98214.64
2018-05-04T19:53:32.719Z,98216.98
2018-05-04T19:56:00.437Z,98224.03
2018-05-04T19:58:27.955Z,98226.22
2018-05-04T20:00:55.489Z,98235.06
2018-05-04T20:03:23.050Z,98222.45
2018-05-04T20:05:50.615Z,98231.08
2018-05-04T20:08:18.464Z,98238.27
2018-05-04T20:10:46.308Z,98239.81
2018-05-04T20:13:14.060Z,98239.47
2018-05-04T20:15:41.898Z,98247.37
2018-05-04T20:18:09.730Z,98249.88
2018-05-04T20:20:37.304Z,98244.47
2018-05-04T20:23:05.118Z,98250.90
2018-05-04T20:25:32.935Z,98252.27
2018-05-04T20:28:00.600Z,98250.52
2018-05-04T20:30:28.151Z,98242.83
2018-05-04T20:32:55.776Z,98248.34
2018-05-04T20:35:23.560Z,98250.06
2018-05-04T20:37:51.184Z,98249.82
2018-05-04T20:40:19.285Z,98248.44
2018-05-04T20:42:46.859Z,98251.78
2018-05-04T20:45:14.584Z,98248.95
2018-05-04T20:47:42.183Z,98256.95
2018-05-04T20:50:10.002Z,98263.13
2018-05-04T20:52:37.685Z,98267.52
2018-05-04T20:55:05.349Z,98264.39
2018-05-04T20:57:32.924Z,98268.03
2018-05-04T21:00:00.731Z,98268.53
2018-05-04T21:02:28.253Z,98279.69
2018-05-04T21:04:56.158Z,98276.45
2018-05-04T21:07:23.969Z,98276.09
2018-05-04T21:09:52.995Z,98286.11
2018-05-04T21:12:20.679Z,98283.19
2018-05-04T21:14:48.258Z,98287.98
2018-05-04T21:17:16.079Z,98293.10
2018-05-04T21:19:43.644Z,98293.56
2018-05-04T21:22:11.271Z,98291.95
2018-05-04T21:24:39.025Z,98293.56
2018-05-04T21:27:06.733Z,98289.06
2018-05-04T21:29:34.670Z,98290.42
2018-05-04T21:32:02.404Z,98294.13
2018-05-04T21:34:30.095Z,98292.34
2018-05-04T21:36:57.898Z,98297.31
2018-05-04T21:39:25.710Z,98293.61
2018-05-04T21:41:53.509Z,98299.42
2018-05-04T21:44:21.096Z,98295.42
2018-05-04T21:46:48.759Z,98289.76
2018-05-04T21:49:16.653Z,98293.75
2018-05-04T21:51:44.330Z,98285.89
2018-05-04T21:54:12.041Z,98284.22
2018-05-04T21:56:39.959Z,98287.50
2018-05-04T21:59:08.259Z,98286.45
2018-05-04T22:01:35.827Z,98283.60
2018-05-04T22:04:03.621Z,98281.06
2018-05-04T22:06:31.249Z,98295.59
2018-05-04T22:08:58.836Z,98284.24
2018-05-04T22:11:26.446Z,98292.27
2018-05-04T22:13:54.066Z,98292.02
2018-05-04T22:16:21.596Z,98293.58
2018-05-04T22:18:49.975Z,98295.45
2018-05-04T22:21:17.604Z,98290.36
2018-05-04T22:23:45.144Z,98292.47
2018-05-04T22:26:12.700Z,98291.88
2018-05-04T22:28:40.325Z,98292.07
2018-05-04T22:31:07.899Z,98292.27
2018-05-04T22:33:35.600Z,98297.14
2018-05-04T22:36:03.407Z,98298.41
2018-05-04T22:38:31.239Z,98288.80
2018-05-04T22:40:59.015Z,98291.63
2018-05-04T22:43:26.653Z,98294.47
2018-05-04T22:45:54.600Z,98292.13
2018-05-04T22:48:22.365Z,98303.53
2018-05-04T22:50:50.035Z,98299.84
2018-05-04T22:53:17.781Z,98308.13
2018-05-04T22:55:45.405Z,98300.47
2018-05-04T22:58:13.200Z,98315.04
2018-05-04T23:00:40.781Z,98313.58
2018-05-04T23:03:08.679Z,98314.50
2018-05-04T23:05:36.428Z,98316.22
2018-05-04T23:08:04.052Z,98313.05
2018-05-04T23:10:32.235Z,98315.21
2018-05-04T23:12:59.961Z,98310.27
2018-05-04T23:15:28.398Z,98311.84
2018-05-04T23:17:56.221Z,98314.66
2018-05-04T23:20:24.104Z,98315.57
2018-05-04T23:22:51.764Z,98312.67
2018-05-04T23:25:20.355Z,98315.14
2018-05-04T23:27:47.956Z,98327.09
2018-05-04T23:30:15.834Z,98327.50
2018-05-04T23:32:43.545Z,98326.14
2018-05-04T23:35:12.496Z,98325.66
2018-05-04T23:37:40.041Z,98325.90
2018-05-04T23:40:07.836Z,98323.58
2018-05-04T23:42:35.513Z,98325.90
2018-05-04T23:45:03.070Z,98326.04
2018-05-04T23:47:31.340Z,98329.09
2018-05-04T23:49:59.030Z,98319.73
2018-05-04T23:52:26.568Z,98323.57
2018-05-04T23:54:54.465Z,98326.05
2018-05-04T23:57:22.296Z,98319.24
2018-05-04T23:59:50.010Z,98323.66
